Time;durP1;ratioP1;P1;durP2;ratioP2;P2;SDS_P1;SDS_P2;PMS_P1;PMS_P2;Temp;Humidity;BMP_temperature;BMP_pressure;BME280_temperature;BME280_humidity;BME280_pressure;Samples;Min_cycle;Max_cycle;Signal;HPM_P1;HPM_P2
2022/10/14 00:00:49;;;;;;;;;;;;;;;12.02;82.67;98189.16;5033772;28;19929;-57
2022/10/14 00:03:17;;;;;;;;;;;;;;;11.98;82.81;98190.09;5030857;28;19925;-56
2022/10/14 00:05:47;;;;;;;;;;;;;;;11.99;82.64;98186.28;5054333;28;19925;-57
2022/10/14 00:08:15;;;;;;;;;;;;;;;12.02;82.65;98191.09;5034828;28;19928;-56
2022/10/14 00:10:43;;;;;;;;;;;;;;;12.05;82.66;98188.56;5024047;28;19929;-56
2022/10/14 00:13:11;;;;;;;;;;;;;;;12.05;82.44;98183.09;5034059;28;19925;-56
2022/10/14 00:15:39;;;;;;;;;;;;;;;11.90;83.35;98185.44;5021387;28;20413;-56
2022/10/14 00:18:10;;;;;;;;;;;;;;;12.00;82.99;98196.84;5028047;28;19933;-56
2022/10/14 00:20:38;;;;;;;;;;;;;;;11.90;83.30;98193.59;5041525;28;19926;-56
2022/10/14 00:23:06;;;;;;;;;;;;;;;11.96;83.11;98195.88;5042279;28;19928;-56
2022/10/14 00:25:38;;;;;;;;;;;;;;;11.96;83.26;98198.59;5028171;28;20382;-56
2022/10/14 00:28:06;;;;;;;;;;;;;;;11.98;83.27;98187.38;5028070;28;20372;-56
2022/10/14 00:30:37;;;;;;;;;;;;;;;11.95;83.56;98194.25;5031531;28;19932;-57
2022/10/14 00:33:05;;;;;;;;;;;;;;;12.02;83.15;98191.09;5029500;28;19992;-56
2022/10/14 00:35:34;;;;;;;;;;;;;;;12.04;83.12;98186.94;5031770;28;20414;-56
2022/10/14 00:38:02;;;;;;;;;;;;;;;12.05;83.12;98193.19;5035443;28;19963;-56
2022/10/14 00:40:30;;;;;;;;;;;;;;;12.03;83.20;98190.75;5060305;28;19925;-56
2022/10/14 00:42:58;;;;;;;;;;;;;;;12.05;83.26;98193.19;5051026;28;19933;-56
2022/10/14 00:45:26;;;;;;;;;;;;;;;11.99;83.28;98192.53;5051542;28;19932;-56
2022/10/14 00:47:54;;;;;;;;;;;;;;;11.93;83.85;98196.50;5032378;28;19940;-56
2022/10/14 00:50:22;;;;;;;;;;;;;;;11.92;83.76;98194.88;5050659;28;19932;-56
2022/10/14 00:52:54;;;;;;;;;;;;;;;11.96;83.79;98195.06;5023185;28;19932;-56
2022/10/14 00:55:22;;;;;;;;;;;;;;;11.99;83.86;98203.41;5057395;28;20012;-57
2022/10/14 00:58:15;;;;;;;;;;;;;;;12.02;83.77;98194.59;5034046;28;20386;-56
2022/10/14 01:01:09;;;;;;;;;;;;;;;12.00;84.02;98194.13;5029189;28;20219;-56
2022/10/14 01:03:37;;;;;;;;;;;;;;;12.09;84.03;98199.63;5029738;28;19929;-56
2022/10/14 01:06:13;;;;;;;;;;;;;;;12.12;84.12;98198.19;5030066;28;19956;-56
2022/10/14 01:08:44;;;;;;;;;;;;;;;12.12;84.51;98192.72;5041406;28;20020;-56
2022/10/14 01:11:18;;;;;;;;;;;;;;;12.13;85.03;98183.44;5048173;28;20020;-56
2022/10/14 01:13:48;;;;;;;;;;;;;;;12.15;84.71;98181.22;5031758;28;19982;-56
2022/10/14 01:19:16;;;;;;;;;;;;;;;12.15;85.42;98183.94;5021672;28;19925;-56
2022/10/14 01:21:45;;;;;;;;;;;;;;;12.18;85.39;98180.56;5047785;28;20153;-56
2022/10/14 01:24:23;;;;;;;;;;;;;;;12.18;85.21;98181.38;5019580;28;19965;-56
2022/10/14 01:26:56;;;;;;;;;;;;;;;12.16;85.39;98180.91;5030833;28;19932;-56
2022/10/14 01:29:44;;;;;;;;;;;;;;;12.18;85.51;98180.56;5056368;28;20348;-56
2022/10/14 01:32:14;;;;;;;;;;;;;;;12.21;85.43;98177.25;5026122;28;19935;-57
2022/10/14 01:34:47;;;;;;;;;;;;;;;12.20;85.14;98178.38;5030880;28;19925;-56
2022/10/14 01:37:17;;;;;;;;;;;;;;;12.18;85.44;98188.75;5056336;28;20275;-56
2022/10/14 01:39:47;;;;;;;;;;;;;;;12.18;85.40;98169.69;5023925;28;19928;-56
2022/10/14 01:42:16;;;;;;;;;;;;;;;12.10;86.05;98173.19;5037179;28;19924;-56
2022/10/14 01:44:46;;;;;;;;;;;;;;;12.14;85.90;98174.16;5030304;28;19925;-56
2022/10/14 01:47:20;;;;;;;;;;;;;;;12.17;85.67;98173.53;5035703;28;19925;-56
2022/10/14 01:49:50;;;;;;;;;;;;;;;12.16;86.02;98177.38;5028432;28;20373;-56
2022/10/14 01:52:45;;;;;;;;;;;;;;;12.17;86.01;98173.53;5030391;28;19988;-57
2022/10/14 01:55:14;;;;;;;;;;;;;;;12.18;86.07;98159.59;5030042;28;20056;-56
2022/10/14 01:57:42;;;;;;;;;;;;;;;12.14;86.23;98171.41;5033484;28;19926;-56
2022/10/14 02:03:04;;;;;;;;;;;;;;;12.14;86.26;98168.69;5026948;28;19925;-56
2022/10/14 02:05:36;;;;;;;;;;;;;;;12.15;86.09;98162.16;5055905;28;19972;-56
2022/10/14 02:08:05;;;;;;;;;;;;;;;12.14;86.27;98171.41;5028959;28;19967;-56
2022/10/14 02:10:38;;;;;;;;;;;;;;;12.11;85.94;98166.63;5062067;28;20023;-57
2022/10/14 02:13:11;;;;;;;;;;;;;;;12.10;86.50;98162.31;5029451;28;20353;-56
2022/10/14 02:15:41;;;;;;;;;;;;;;;12.12;86.47;98163.56;5033851;28;19933;-56
2022/10/14 02:18:12;;;;;;;;;;;;;;;12.11;86.40;98164.69;5054138;28;19926;-56
2022/10/14 02:20:41;;;;;;;;;;;;;;;12.14;86.22;98168.69;5025338;28;19932;-56
2022/10/14 02:23:11;;;;;;;;;;;;;;;12.12;86.42;98165.50;5035833;28;19925;-56
2022/10/14 02:25:39;;;;;;;;;;;;;;;12.16;86.39;98161.03;5031598;28;19936;-56
2022/10/14 02:28:07;;;;;;;;;;;;;;;12.13;86.54;98161.66;5047921;28;20015;-56
2022/10/14 02:30:38;;;;;;;;;;;;;;;12.17;86.37;98160.72;5039240;28;19925;-56
2022/10/14 02:33:06;;;;;;;;;;;;;;;12.22;86.29;98157.03;5032623;28;19929;-57
2022/10/14 02:35:39;;;;;;;;;;;;;;;12.23;86.24;98156.72;5037213;28;19935;-56
2022/10/14 02:41:15;;;;;;;;;;;;;;;12.22;86.04;98143.44;5036773;28;19925;-56
2022/10/14 02:43:44;;;;;;;;;;;;;;;12.22;86.12;98152.41;5033723;28;20015;-56
2022/10/14 02:46:12;;;;;;;;;;;;;;;12.21;85.94;98142.63;5032114;28;20460;-56
2022/10/14 02:48:40;;;;;;;;;;;;;;;12.24;86.08;98135.72;5060304;28;20437;-56
2022/10/14 02:51:09;;;;;;;;;;;;;;;12.03;87.02;98141.75;5034079;28;20365;-56
2022/10/14 02:53:38;;;;;;;;;;;;;;;12.12;86.35;98141.78;5034200;28;19929;-56
2022/10/14 02:56:08;;;;;;;;;;;;;;;12.15;86.08;98134.94;5030472;28;19925;-56
2022/10/14 02:58:37;;;;;;;;;;;;;;;12.15;86.15;98130.28;5065195;28;20149;-57
2022/10/14 03:01:05;;;;;;;;;;;;;;;12.17;86.27;98127.22;5065210;28;20034;-56
2022/10/14 03:03:33;;;;;;;;;;;;;;;12.15;86.22;98124.03;5027619;28;19933;-57
2022/10/14 03:06:02;;;;;;;;;;;;;;;12.15;86.15;98127.56;5031938;28;19932;-56
2022/10/14 03:08:32;;;;;;;;;;;;;;;12.13;86.05;98124.31;5030617;28;19925;-57
2022/10/14 03:11:01;;;;;;;;;;;;;;;12.10;86.10;98127.69;5046550;28;19933;-56
2022/10/14 03:13:29;;;;;;;;;;;;;;;12.09;86.01;98133.44;5032546;28;20369;-56
2022/10/14 03:15:58;;;;;;;;;;;;;;;12.07;86.35;98131.84;5045082;28;19929;-57
2022/10/14 03:18:52;;;;;;;;;;;;;;;12.05;86.38;98127.84;5060823;28;19925;-57
2022/10/14 03:21:33;;;;;;;;;;;;;;;12.09;86.09;98126.09;5032114;28;19928;-56
2022/10/14 03:24:02;;;;;;;;;;;;;;;12.09;86.06;98136.16;5044321;28;19924;-56
2022/10/14 03:26:33;;;;;;;;;;;;;;;12.06;85.98;98122.06;5070186;28;19929;-56
2022/10/14 03:29:04;;;;;;;;;;;;;;;12.03;86.03;98132.78;5028823;28;20652;-56
2022/10/14 03:31:56;;;;;;;;;;;;;;;12.01;86.01;98130.38;5061118;28;19925;-56
2022/10/14 03:34:56;;;;;;;;;;;;;;;12.03;86.19;98130.06;5024099;28;19926;-57
2022/10/14 03:37:25;;;;;;;;;;;;;;;12.03;86.40;98128.13;5049223;28;19925;-56
2022/10/14 03:39:57;;;;;;;;;;;;;;;12.05;86.22;98125.91;5032442;28;19925;-56
2022/10/14 03:42:25;;;;;;;;;;;;;;;12.04;86.10;98124.31;5064120;28;19925;-56
2022/10/14 03:44:53;;;;;;;;;;;;;;;12.05;86.08;98125.91;5032298;28;19925;-56
2022/10/14 03:47:25;;;;;;;;;;;;;;;12.05;86.29;98125.91;5028498;28;19925;-57
2022/10/14 03:49:54;;;;;;;;;;;;;;;12.05;86.40;98115.03;5031494;28;19991;-56
2022/10/14 03:53:01;;;;;;;;;;;;;;;12.04;86.21;98110.69;5029269;28;20359;-56
2022/10/14 03:55:37;;;;;;;;;;;;;;;12.06;85.98;98116.63;5058821;28;19932;-56
2022/10/14 04:01:03;;;;;;;;;;;;;;;12.06;85.99;98108.44;5028625;28;19987;-56
2022/10/14 04:03:51;;;;;;;;;;;;;;;12.06;86.04;98113.91;5023478;28;20397;-56
2022/10/14 04:06:20;;;;;;;;;;;;;;;12.07;85.83;98112.78;5029935;28;19976;-56
2022/10/14 04:08:54;;;;;;;;;;;;;;;12.05;85.88;98104.13;5061444;28;19929;-56
2022/10/14 04:11:30;;;;;;;;;;;;;;;12.07;86.00;98104.59;5063095;28;19925;-56
2022/10/14 04:14:25;;;;;;;;;;;;;;;12.09;85.98;98098.03;5027637;28;19932;-56
2022/10/14 04:17:13;;;;;;;;;;;;;;;12.09;85.91;98103.47;5056306;28;19926;-56
2022/10/14 04:20:02;;;;;;;;;;;;;;;12.09;85.88;98095.31;5056967;28;20187;-56
2022/10/14 04:22:45;;;;;;;;;;;;;;;12.11;85.79;98103.97;5059558;28;19929;-56
2022/10/14 04:25:37;;;;;;;;;;;;;;;11.97;86.50;98096.72;5025199;28;19925;-57
2022/10/14 04:28:27;;;;;;;;;;;;;;;12.07;86.04;98095.63;5027265;28;20043;-56
2022/10/14 04:31:22;;;;;;;;;;;;;;;12.12;85.86;98094.69;5057043;28;19925;-56
2022/10/14 04:34:16;;;;;;;;;;;;;;;12.13;85.54;98096.28;5026255;28;20380;-56
2022/10/14 04:37:04;;;;;;;;;;;;;;;12.17;85.29;98094.53;5028315;28;19928;-56
2022/10/14 04:40:15;;;;;;;;;;;;;;;12.23;85.44;98098.72;5053861;28;19929;-56
2022/10/14 04:43:06;;;;;;;;;;;;;;;12.22;85.34;98094.41;5029096;28;19964;-57
2022/10/14 04:46:00;;;;;;;;;;;;;;;12.22;85.19;98086.22;5055364;28;20197;-56
2022/10/14 04:48:49;;;;;;;;;;;;;;;12.26;85.11;98085.28;5053983;28;19983;-57
2022/10/14 04:51:39;;;;;;;;;;;;;;;12.27;84.94;98083.34;5027561;28;19979;-56
2022/10/14 04:54:49;;;;;;;;;;;;;;;12.26;84.71;98079.81;5035788;28;19933;-57
2022/10/14 04:57:48;;;;;;;;;;;;;;;12.22;84.85;98087.03;5055742;28;19929;-56
2022/10/14 05:00:37;;;;;;;;;;;;;;;12.24;84.99;98086.69;5079774;28;20233;-57
2022/10/14 05:03:47;;;;;;;;;;;;;;;12.28;84.63;98074.84;5076557;28;19958;-56
2022/10/14 05:06:37;;;;;;;;;;;;;;;12.28;84.79;98076.78;5060836;28;20310;-57
2022/10/14 05:09:27;;;;;;;;;;;;;;;12.31;84.81;98076.16;5052604;28;20019;-56
2022/10/14 05:12:15;;;;;;;;;;;;;;;12.35;84.69;98071.66;5068305;28;21194;-56
2022/10/14 05:14:49;;;;;;;;;;;;;;;12.35;84.51;98068.94;5067507;28;19970;-56
2022/10/14 05:17:25;;;;;;;;;;;;;;;12.32;84.66;98062.22;5047570;28;19930;-57
2022/10/14 05:19:55;;;;;;;;;;;;;;;12.37;84.66;98068.63;5069760;28;20362;-56
2022/10/14 05:22:26;;;;;;;;;;;;;;;12.38;84.46;98068.31;5046793;28;19928;-56
2022/10/14 05:24:54;;;;;;;;;;;;;;;12.41;84.40;98075.84;5047850;28;20389;-56
2022/10/14 05:27:22;;;;;;;;;;;;;;;12.41;84.31;98075.84;5041923;28;20409;-56
2022/10/14 05:29:51;;;;;;;;;;;;;;;12.44;84.28;98071.66;5050013;28;19932;-57
2022/10/14 05:32:19;;;;;;;;;;;;;;;12.42;84.15;98073.94;5066359;28;20015;-56
2022/10/14 05:34:50;;;;;;;;;;;;;;;12.39;84.59;98067.19;5052276;28;19943;-56
2022/10/14 05:37:33;;;;;;;;;;;;;;;12.41;84.56;98075.03;5030568;28;20011;-56
2022/10/14 05:40:01;;;;;;;;;;;;;;;12.44;84.28;98075.19;5083938;28;20036;-56
2022/10/14 05:42:33;;;;;;;;;;;;;;;12.46;83.82;98072.94;5050124;28;20031;-56
2022/10/14 05:45:01;;;;;;;;;;;;;;;12.39;84.03;98078.06;5052430;28;19925;-57
2022/10/14 05:47:32;;;;;;;;;;;;;;;12.35;84.40;98077.09;5050043;28;19924;-56
2022/10/14 05:50:08;;;;;;;;;;;;;;;12.37;84.18;98074.88;5049466;28;20328;-57
2022/10/14 05:52:42;;;;;;;;;;;;;;;12.40;84.23;98076.94;5050613;28;20464;-56
2022/10/14 05:55:22;;;;;;;;;;;;;;;12.38;84.20;98071.03;5085639;28;19931;-56
2022/10/14 05:57:55;;;;;;;;;;;;;;;12.37;84.30;98069.44;5046131;28;19926;-57
2022/10/14 06:00:30;;;;;;;;;;;;;;;12.37;84.30;98079.53;5043814;28;19940;-56
2022/10/14 06:03:04;;;;;;;;;;;;;;;12.38;84.40;98079.19;5065107;28;19929;-56
2022/10/14 06:05:35;;;;;;;;;;;;;;;12.38;84.46;98084.66;5064470;28;19925;-57
2022/10/14 06:08:05;;;;;;;;;;;;;;;12.41;84.28;98081.31;5028701;28;20010;-57
2022/10/14 06:10:36;;;;;;;;;;;;;;;12.38;84.62;98081.94;5031445;28;20082;-57
2022/10/14 06:13:04;;;;;;;;;;;;;;;12.43;84.23;98080.97;5030160;28;19925;-57
2022/10/14 06:15:36;;;;;;;;;;;;;;;12.46;84.38;98083.03;5030906;28;19929;-57
2022/10/14 06:21:02;;;;;;;;;;;;;;;12.47;84.59;98079.22;5029187;28;20373;-56
2022/10/14 06:23:31;;;;;;;;;;;;;;;12.46;84.75;98078.41;5035149;28;19937;-56
2022/10/14 06:25:59;;;;;;;;;;;;;;;12.49;84.46;98072.31;5029798;28;20398;-56
2022/10/14 06:28:28;;;;;;;;;;;;;;;12.54;84.23;98080.34;5041904;28;19976;-56
2022/10/14 06:30:56;;;;;;;;;;;;;;;12.55;84.28;98081.94;5030993;28;20012;-57
2022/10/14 06:33:29;;;;;;;;;;;;;;;12.58;84.23;98078.59;5031815;28;20271;-56
2022/10/14 06:36:01;;;;;;;;;;;;;;;12.57;84.41;98076.97;5030481;28;19925;-56
2022/10/14 06:38:34;;;;;;;;;;;;;;;12.61;83.89;98084.50;5028809;28;19952;-56
2022/10/14 06:41:02;;;;;;;;;;;;;;;12.63;84.12;98082.28;5032178;28;19948;-56
2022/10/14 06:43:30;;;;;;;;;;;;;;;12.63;84.00;98077.63;5029376;28;19995;-57
2022/10/14 06:45:58;;;;;;;;;;;;;;;12.59;84.04;98082.09;5030970;28;19933;-56
2022/10/14 06:48:51;;;;;;;;;;;;;;;12.65;84.14;98080.03;5031271;28;20024;-56
2022/10/14 06:51:20;;;;;;;;;;;;;;;12.54;84.19;98082.25;5032036;28;20271;-56
2022/10/14 06:53:49;;;;;;;;;;;;;;;12.55;84.36;98084.66;5031074;28;19925;-56
2022/10/14 06:56:41;;;;;;;;;;;;;;;12.56;84.26;98077.28;5040337;28;19975;-56
2022/10/14 06:59:09;;;;;;;;;;;;;;;12.57;84.38;98074.25;5070381;28;20070;-56
2022/10/14 07:01:37;;;;;;;;;;;;;;;12.62;84.19;98075.19;5067246;28;19924;-56
2022/10/14 07:04:05;;;;;;;;;;;;;;;12.67;84.25;98075.84;5067385;28;19979;-56
2022/10/14 07:06:33;;;;;;;;;;;;;;;12.67;84.16;98081.28;5062493;28;20027;-56
2022/10/14 07:09:03;;;;;;;;;;;;;;;12.72;83.70;98077.59;5068912;28;19974;-56
2022/10/14 07:11:31;;;;;;;;;;;;;;;12.75;83.77;98074.25;5070132;28;20435;-57
2022/10/14 07:13:59;;;;;;;;;;;;;;;12.76;83.79;98075.84;5064385;28;20731;-57
2022/10/14 07:16:28;;;;;;;;;;;;;;;12.84;83.68;98072.34;5071528;28;19924;-56
2022/10/14 07:18:56;;;;;;;;;;;;;;;12.86;83.45;98072.81;5068387;28;19925;-56
2022/10/14 07:21:24;;;;;;;;;;;;;;;12.94;83.54;98077.44;5068567;28;19977;-56
2022/10/14 07:23:51;;;;;;;;;;;;;;;12.95;83.21;98067.34;5063154;28;20047;-57
2022/10/14 07:26:22;;;;;;;;;;;;;;;12.97;82.84;98071.34;5052268;28;19924;-56
2022/10/14 07:28:54;;;;;;;;;;;;;;;12.98;83.22;98072.94;5064239;28;19924;-57
2022/10/14 07:31:22;;;;;;;;;;;;;;;12.95;83.39;98079.06;5071088;28;20343;-56
2022/10/14 07:33:54;;;;;;;;;;;;;;;12.96;83.36;98077.94;5072462;28;20274;-57
2022/10/14 07:36:23;;;;;;;;;;;;;;;13.00;83.67;98073.44;5066011;28;19960;-56
2022/10/14 07:38:51;;;;;;;;;;;;;;;13.05;82.97;98075.19;5068005;28;20018;-56
2022/10/14 07:41:22;;;;;;;;;;;;;;;13.03;83.25;98075.50;5069991;28;19928;-57
2022/10/14 07:43:51;;;;;;;;;;;;;;;13.02;83.01;98079.34;5069833;28;19924;-57
2022/10/14 07:54:08;;;;;;;;;;;;;;;13.12;83.13;98089.13;5054767;28;20006;-63
2022/10/14 07:56:38;;;;;;;;;;;;;;;13.12;82.82;98097.31;5064777;28;20383;-57
2022/10/14 07:59:05;;;;;;;;;;;;;;;13.14;82.89;98095.06;5069471;28;19924;-56
2022/10/14 08:04:25;;;;;;;;;;;;;;;13.05;83.25;98092.38;5069724;28;20385;-56
2022/10/14 08:06:53;;;;;;;;;;;;;;;13.13;83.21;98093.47;5072165;28;19925;-56
2022/10/14 08:09:21;;;;;;;;;;;;;;;13.16;83.01;98095.56;5068576;28;20412;-57
2022/10/14 08:11:51;;;;;;;;;;;;;;;13.18;82.88;98087.84;5050969;28;19928;-56
2022/10/14 08:14:19;;;;;;;;;;;;;;;13.17;82.87;98088.97;5069451;28;19928;-56
2022/10/14 08:16:47;;;;;;;;;;;;;;;13.16;83.08;98090.09;5061316;28;19929;-56
2022/10/14 08:19:15;;;;;;;;;;;;;;;13.17;83.27;98091.69;5068516;28;19948;-57
2022/10/14 08:21:43;;;;;;;;;;;;;;;13.04;84.00;98092.66;5072580;28;19960;-56
2022/10/14 08:24:11;;;;;;;;;;;;;;;13.10;83.47;98086.75;5058982;28;19928;-56
2022/10/14 08:26:39;;;;;;;;;;;;;;;13.07;84.03;98086.56;5058535;28;20594;-57
2022/10/14 08:29:11;;;;;;;;;;;;;;;13.04;84.05;98089.94;5054106;28;19932;-56
2022/10/14 08:31:39;;;;;;;;;;;;;;;13.05;84.09;98091.56;5063546;28;19929;-56
2022/10/14 08:34:07;;;;;;;;;;;;;;;13.04;84.19;98088.00;5059993;28;19928;-56
2022/10/14 08:36:36;;;;;;;;;;;;;;;13.14;83.85;98086.88;5070681;28;19939;-56
2022/10/14 08:39:04;;;;;;;;;;;;;;;13.26;83.31;98086.22;5069791;28;19933;-56
2022/10/14 08:44:42;;;;;;;;;;;;;;;13.47;82.68;98070.78;5065213;28;19929;-56
2022/10/14 08:47:11;;;;;;;;;;;;;;;13.54;82.99;98073.81;5059453;28;19963;-56
2022/10/14 08:55:28;;;;;;;;;;;;;;;13.80;80.96;98070.19;5067179;28;20437;-56
2022/10/14 08:57:57;;;;;;;;;;;;;;;13.80;80.48;98062.00;5065929;28;19935;-56
2022/10/14 09:00:27;;;;;;;;;;;;;;;13.87;80.39;98067.72;5047682;28;19921;-56
2022/10/14 09:02:57;;;;;;;;;;;;;;;13.99;79.88;98065.09;5069107;28;20449;-56
2022/10/14 09:05:25;;;;;;;;;;;;;;;14.09;79.51;98059.25;5071487;28;19974;-56
2022/10/14 09:07:55;;;;;;;;;;;;;;;14.26;79.18;98060.28;5068744;28;19989;-56
2022/10/14 09:10:25;;;;;;;;;;;;;;;14.39;78.19;98064.69;5070593;28;19925;-56
2022/10/14 09:12:53;;;;;;;;;;;;;;;14.45;77.59;98063.38;5066608;28;19928;-57
2022/10/14 09:15:22;;;;;;;;;;;;;;;14.56;77.09;98063.81;5056551;28;19925;-56
2022/10/14 09:17:52;;;;;;;;;;;;;;;14.64;77.05;98058.25;5065510;28;19983;-56
2022/10/14 09:20:21;;;;;;;;;;;;;;;14.70;76.34;98063.50;5069116;28;20023;-56
2022/10/14 09:22:53;;;;;;;;;;;;;;;14.76;75.80;98056.72;5069731;28;19924;-57
2022/10/14 09:25:21;;;;;;;;;;;;;;;14.88;75.94;98059.50;5060496;28;20003;-57
2022/10/14 09:27:49;;;;;;;;;;;;;;;14.91;75.56;98059.66;5062272;28;20486;-57
2022/10/14 09:30:18;;;;;;;;;;;;;;;14.97;75.00;98062.97;5045809;28;19931;-56
2022/10/14 09:32:47;;;;;;;;;;;;;;;15.03;74.79;98061.63;5049481;28;19957;-56
2022/10/14 09:35:19;;;;;;;;;;;;;;;15.06;74.80;98057.41;5055438;28;19986;-56
2022/10/14 09:37:47;;;;;;;;;;;;;;;15.12;74.90;98058.78;5044287;28;20012;-56
2022/10/14 09:40:17;;;;;;;;;;;;;;;15.17;73.97;98056.63;5056004;28;19956;-56
2022/10/14 09:42:48;;;;;;;;;;;;;;;15.13;73.95;98053.00;5047948;28;19925;-56
2022/10/14 09:45:17;;;;;;;;;;;;;;;15.26;73.97;98055.75;5045462;28;19928;-56
2022/10/14 09:47:47;;;;;;;;;;;;;;;15.29;73.60;98052.38;5069108;28;19929;-56
2022/10/14 09:50:24;;;;;;;;;;;;;;;15.34;73.25;98054.84;5066707;28;19934;-56
2022/10/14 09:52:53;;;;;;;;;;;;;;;15.31;72.97;98050.06;5066194;28;20031;-56
2022/10/14 09:55:23;;;;;;;;;;;;;;;15.44;72.88;98047.00;5065725;28;19932;-56
2022/10/14 09:58:20;;;;;;;;;;;;;;;15.41;71.78;98050.44;5067110;28;19928;-56
2022/10/14 10:00:49;;;;;;;;;;;;;;;15.54;71.77;98051.25;5026559;28;19940;-56
2022/10/14 10:03:41;;;;;;;;;;;;;;;15.50;71.72;98047.63;5068154;28;19986;-56
2022/10/14 10:06:12;;;;;;;;;;;;;;;15.61;71.40;98045.22;5079599;28;19932;-56
2022/10/14 10:08:41;;;;;;;;;;;;;;;15.69;71.17;98042.41;5067762;28;20035;-56
2022/10/14 10:11:36;;;;;;;;;;;;;;;15.74;70.41;98038.63;5066302;28;19947;-56
2022/10/14 10:14:15;;;;;;;;;;;;;;;15.78;70.86;98039.56;5064978;28;19974;-56
2022/10/14 10:16:43;;;;;;;;;;;;;;;15.83;70.19;98030.31;5062505;28;19928;-56
2022/10/14 10:19:25;;;;;;;;;;;;;;;15.85;69.50;98028.03;5066780;28;19928;-56
2022/10/14 10:21:55;;;;;;;;;;;;;;;15.84;69.56;98023.69;5065601;28;20032;-56
2022/10/14 10:24:23;;;;;;;;;;;;;;;15.94;69.07;98021.28;5066829;28;21917;-56
2022/10/14 10:27:20;;;;;;;;;;;;;;;15.96;68.76;98015.47;5059510;28;19932;-56
2022/10/14 10:29:56;;;;;;;;;;;;;;;15.90;69.10;98009.41;5044009;28;20012;-56
2022/10/14 10:32:29;;;;;;;;;;;;;;;16.04;68.75;98006.31;5063221;28;19924;-56
2022/10/14 10:35:00;;;;;;;;;;;;;;;16.16;68.62;97998.06;5066953;28;19929;-56
2022/10/14 10:37:32;;;;;;;;;;;;;;;16.24;68.22;97988.09;5061444;28;19925;-56
2022/10/14 10:40:24;;;;;;;;;;;;;;;16.24;67.94;97983.44;5063720;28;19929;-56
2022/10/14 10:42:57;;;;;;;;;;;;;;;16.26;68.30;97991.31;5045198;28;20286;-56
2022/10/14 10:45:29;;;;;;;;;;;;;;;16.27;67.49;97975.66;5039351;28;20112;-56
2022/10/14 10:48:05;;;;;;;;;;;;;;;16.15;67.34;97974.56;5073487;28;19924;-56
2022/10/14 10:50:37;;;;;;;;;;;;;;;16.14;67.51;97966.66;5072487;28;20381;-56
2022/10/14 10:53:13;;;;;;;;;;;;;;;16.12;67.56;97966.22;5076285;28;19966;-56
2022/10/14 10:55:44;;;;;;;;;;;;;;;16.05;67.54;97971.50;5070704;28;19928;-56
2022/10/14 10:58:37;;;;;;;;;;;;;;;16.07;68.61;97961.78;5072225;28;21079;-56
2022/10/14 11:01:30;;;;;;;;;;;;;;;16.17;68.08;97957.75;5066005;28;19963;-56
2022/10/14 11:04:03;;;;;;;;;;;;;;;16.21;67.91;97955.94;5073323;28;19924;-56
2022/10/14 11:12:06;;;;;;;;;;;;;;;16.34;67.29;97960.22;5065630;28;19928;-56
2022/10/14 11:14:57;;;;;;;;;;;;;;;16.38;66.83;97960.31;5068457;28;19924;-56
2022/10/14 11:17:28;;;;;;;;;;;;;;;16.42;67.11;97942.84;5049208;28;20023;-56
2022/10/14 11:19:59;;;;;;;;;;;;;;;16.34;66.50;97942.97;5071148;28;20026;-56
2022/10/14 11:22:37;;;;;;;;;;;;;;;16.35;66.98;97928.09;5056263;28;19932;-56
2022/10/14 11:25:10;;;;;;;;;;;;;;;16.39;66.83;97923.53;5069849;28;20451;-56
2022/10/14 11:28:05;;;;;;;;;;;;;;;16.28;66.43;97915.00;5070733;28;19929;-56
2022/10/14 11:30:37;;;;;;;;;;;;;;;16.33;66.86;97913.97;5061729;28;19931;-56
2022/10/14 11:33:13;;;;;;;;;;;;;;;16.39;67.00;97915.31;5070122;28;20426;-56
2022/10/14 11:36:08;;;;;;;;;;;;;;;16.33;66.60;97914.75;5072934;28;19935;-56
2022/10/14 11:38:40;;;;;;;;;;;;;;;16.37;66.87;97920.34;5070719;28;19943;-56
2022/10/14 11:41:13;;;;;;;;;;;;;;;16.39;67.22;97918.84;5054634;28;19924;-56
2022/10/14 11:43:41;;;;;;;;;;;;;;;16.33;66.88;97922.97;5071012;28;19928;-55
2022/10/14 11:46:11;;;;;;;;;;;;;;;16.36;66.70;97914.06;5066410;28;19956;-56
2022/10/14 11:48:40;;;;;;;;;;;;;;;16.34;66.85;97910.88;5027294;28;20007;-55
2022/10/14 11:51:09;;;;;;;;;;;;;;;16.33;66.94;97903.00;5050041;28;20389;-56
2022/10/14 11:56:48;;;;;;;;;;;;;;;16.38;66.34;97908.22;5064505;28;19933;-56
2022/10/14 11:59:22;;;;;;;;;;;;;;;16.43;66.90;97910.72;5050796;28;20028;-56
2022/10/14 12:01:50;;;;;;;;;;;;;;;16.44;66.65;97904.09;5045416;28;19978;-56
2022/10/14 12:04:20;;;;;;;;;;;;;;;16.48;66.70;97900.28;5050189;28;20311;-56
2022/10/14 12:07:13;;;;;;;;;;;;;;;16.49;65.57;97895.59;5048344;28;19948;-56
2022/10/14 12:09:44;;;;;;;;;;;;;;;16.54;66.07;97892.63;5049391;28;19932;-56
2022/10/14 12:12:14;;;;;;;;;;;;;;;16.55;66.12;97883.22;5048532;28;19940;-56
2022/10/14 12:14:43;;;;;;;;;;;;;;;16.64;65.52;97874.84;5064913;28;20394;-56
2022/10/14 12:17:16;;;;;;;;;;;;;;;16.65;65.50;97879.97;5046225;28;20412;-56
2022/10/14 12:19:51;;;;;;;;;;;;;;;16.72;65.35;97874.72;5049711;28;19971;-56
2022/10/14 12:22:20;;;;;;;;;;;;;;;16.71;65.98;97880.53;5052530;28;20300;-56
2022/10/14 12:24:48;;;;;;;;;;;;;;;16.73;65.64;97873.56;5064276;28;19932;-56
2022/10/14 12:27:18;;;;;;;;;;;;;;;16.76;65.88;97866.56;5051562;28;19943;-56
2022/10/14 12:29:47;;;;;;;;;;;;;;;16.73;65.68;97862.59;5048961;28;20322;-56
2022/10/14 12:32:19;;;;;;;;;;;;;;;16.66;66.33;97851.41;5045922;28;20415;-56
2022/10/14 12:34:48;;;;;;;;;;;;;;;16.66;66.48;97861.56;5048072;28;20368;-56
2022/10/14 12:37:49;;;;;;;;;;;;;;;16.66;66.40;97864.31;5053743;28;19932;-56
2022/10/14 12:40:42;;;;;;;;;;;;;;;16.62;66.51;97861.50;5048165;28;20286;-56
2022/10/14 12:43:19;;;;;;;;;;;;;;;16.60;66.64;97855.56;5050750;28;19925;-56
2022/10/14 12:45:48;;;;;;;;;;;;;;;16.58;66.44;97849.63;5044857;28;19928;-56
2022/10/14 12:48:18;;;;;;;;;;;;;;;16.57;66.76;97850.78;5050856;28;20416;-56
2022/10/14 12:50:46;;;;;;;;;;;;;;;16.49;66.84;97840.75;5054343;28;19972;-56
2022/10/14 12:53:21;;;;;;;;;;;;;;;16.48;67.48;97855.63;5051360;28;19924;-56
2022/10/14 12:55:50;;;;;;;;;;;;;;;16.47;67.51;97845.81;5047288;28;19929;-56
2022/10/14 12:58:43;;;;;;;;;;;;;;;16.45;67.64;97846.16;5048724;28;20385;-56
2022/10/14 13:01:16;;;;;;;;;;;;;;;16.44;68.03;97844.56;5077966;28;19936;-56
2022/10/14 13:03:45;;;;;;;;;;;;;;;16.41;68.05;97844.47;5049901;28;20006;-56
2022/10/14 13:06:41;;;;;;;;;;;;;;;16.40;67.94;97834.63;5054912;28;20328;-56
2022/10/14 13:09:39;;;;;;;;;;;;;;;16.41;67.98;97825.28;5048984;28;20346;-56
2022/10/14 13:12:35;;;;;;;;;;;;;;;16.40;66.93;97821.72;5046396;28;19929;-56
2022/10/14 13:15:04;;;;;;;;;;;;;;;16.37;66.07;97819.69;5044874;28;19925;-56
2022/10/14 13:17:45;;;;;;;;;;;;;;;16.42;66.13;97821.38;5049307;28;19924;-56
2022/10/14 13:20:32;;;;;;;;;;;;;;;16.42;65.90;97824.13;5049307;28;20382;-56
2022/10/14 13:23:21;;;;;;;;;;;;;;;16.44;65.64;97814.41;5046553;28;20289;-56
2022/10/14 13:25:50;;;;;;;;;;;;;;;16.46;65.30;97805.84;5047295;28;19955;-56
2022/10/14 13:28:22;;;;;;;;;;;;;;;16.42;65.72;97797.50;5047399;28;19925;-56
2022/10/14 13:30:52;;;;;;;;;;;;;;;16.47;65.79;97799.19;5045155;28;20387;-56
2022/10/14 13:33:45;;;;;;;;;;;;;;;16.45;65.63;97796.00;5045845;28;20398;-56
2022/10/14 13:36:15;;;;;;;;;;;;;;;16.44;65.71;97789.72;5051338;28;20008;-56
2022/10/14 13:38:44;;;;;;;;;;;;;;;16.38;65.94;97790.34;5050562;28;19932;-56
2022/10/14 13:41:23;;;;;;;;;;;;;;;16.28;66.26;97791.66;5049911;28;20408;-56
2022/10/14 13:43:57;;;;;;;;;;;;;;;16.26;65.95;97782.97;5047854;28;19990;-56
2022/10/14 13:46:27;;;;;;;;;;;;;;;16.19;66.30;97780.03;5044594;28;19979;-56
2022/10/14 13:48:56;;;;;;;;;;;;;;;16.16;66.46;97773.31;5047855;28;20044;-56
2022/10/14 13:51:28;;;;;;;;;;;;;;;16.19;67.11;97778.13;5046401;28;20024;-56
2022/10/14 13:54:14;;;;;;;;;;;;;;;16.18;67.29;97786.66;5054010;28;19929;-56
2022/10/14 13:56:42;;;;;;;;;;;;;;;16.18;68.17;97789.41;5050319;28;19925;-56
2022/10/14 13:59:18;;;;;;;;;;;;;;;16.22;68.02;97790.31;5047790;28;20261;-56
2022/10/14 14:02:08;;;;;;;;;;;;;;;16.35;67.90;97782.81;5063299;28;19959;-56
2022/10/14 14:04:36;;;;;;;;;;;;;;;16.48;67.70;97785.13;5069441;28;19925;-56
2022/10/14 14:07:31;;;;;;;;;;;;;;;16.64;67.39;97787.09;5072117;28;20034;-56